Time;durP1;ratioP1;P1;durP2;ratioP2;P2;SDS_P1;SDS_P2;PMS_P1;PMS_P2;Temp;Humidity;BMP_temperature;BMP_pressure;BME280_temperature;BME280_humidity;BME280_pressure;Samples;Min_cycle;Max_cycle;Signal;HPM_P1;HPM_P2
2023/08/06 00:00:49;;;;;;;5.18;3.30;;;;;;;;;;5049506;28;20053;-61
2023/08/06 00:03:19;;;;;;;5.72;3.35;;;;;;;;;;5047242;28;20412;-61
2023/08/06 00:05:47;;;;;;;4.15;2.85;;;;;;;;;;5043207;28;20045;-63
2023/08/06 00:08:16;;;;;;;5.35;3.15;;;;;;;;;;5051911;28;20049;-63
2023/08/06 00:10:45;;;;;;;3.83;3.03;;;;;;;;;;5048224;28;20135;-62
2023/08/06 00:13:13;;;;;;;5.35;3.22;;;;;;;;;;5042037;28;20041;-61
2023/08/06 00:15:41;;;;;;;3.67;2.60;;;;;;;;;;5046430;28;20456;-62
2023/08/06 00:18:10;;;;;;;5.47;3.20;;;;;;;;;;5048569;28;20053;-62
2023/08/06 00:20:41;;;;;;;4.15;2.67;;;;;;;;;;5046604;28;20053;-66
2023/08/06 00:23:10;;;;;;;6.32;2.95;;;;;;;;;;5048910;28;20075;-63
2023/08/06 00:25:38;;;;;;;7.43;2.45;;;;;;;;;;5063655;28;20044;-64
2023/08/06 00:28:06;;;;;;;3.78;2.47;;;;;;;;;;5068651;28;20048;-62
2023/08/06 00:30:35;;;;;;;7.13;2.58;;;;;;;;;;5068854;28;20067;-62
2023/08/06 00:33:04;;;;;;;6.03;3.33;;;;;;;;;;5067287;28;20439;-61
2023/08/06 00:35:32;;;;;;;4.85;2.72;;;;;;;;;;5051957;28;20055;-64
2023/08/06 00:38:02;;;;;;;5.53;3.28;;;;;;;;;;5046981;28;20048;-64
2023/08/06 00:40:30;;;;;;;4.95;2.67;;;;;;;;;;5048426;28;20095;-61
2023/08/06 00:42:58;;;;;;;3.63;2.90;;;;;;;;;;5049942;28;20045;-63
2023/08/06 00:45:27;;;;;;;5.85;3.00;;;;;;;;;;5062605;28;20419;-61
2023/08/06 00:47:56;;;;;;;3.20;2.40;;;;;;;;;;5066605;28;20500;-61
2023/08/06 00:50:24;;;;;;;8.38;2.45;;;;;;;;;;5066423;28;20083;-63
2023/08/06 00:52:53;;;;;;;5.28;2.40;;;;;;;;;;5068520;28;20036;-61
2023/08/06 00:55:22;;;;;;;4.30;2.28;;;;;;;;;;5064905;28;20084;-71
2023/08/06 00:57:52;;;;;;;7.03;2.30;;;;;;;;;;5070066;28;20103;-65
2023/08/06 01:00:21;;;;;;;3.15;2.15;;;;;;;;;;5064283;28;20055;-62
2023/08/06 01:02:50;;;;;;;4.00;1.77;;;;;;;;;;5066380;28;20084;-61
2023/08/06 01:05:19;;;;;;;3.35;1.90;;;;;;;;;;5064357;22;20521;-61
2023/08/06 01:07:53;;;;;;;3.80;2.00;;;;;;;;;;5038908;28;20048;-62
2023/08/06 01:10:31;;;;;;;4.17;2.03;;;;;;;;;;5043908;28;20080;-61
2023/08/06 01:13:07;;;;;;;4.20;2.08;;;;;;;;;;5046358;28;20299;-62
2023/08/06 01:15:37;;;;;;;3.70;2.00;;;;;;;;;;5047025;28;20110;-61
2023/08/06 01:18:06;;;;;;;3.92;2.20;;;;;;;;;;5050910;28;20415;-61
2023/08/06 01:20:36;;;;;;;3.67;2.40;;;;;;;;;;5045435;28;20134;-63
2023/08/06 01:23:04;;;;;;;3.35;1.73;;;;;;;;;;5043145;28;20559;-61
2023/08/06 01:25:35;;;;;;;4.63;2.28;;;;;;;;;;5047226;28;20102;-62
2023/08/06 01:28:06;;;;;;;4.97;1.98;;;;;;;;;;5047990;28;20045;-62
2023/08/06 01:30:36;;;;;;;3.67;2.05;;;;;;;;;;5043927;28;20041;-61
2023/08/06 01:33:06;;;;;;;2.95;2.30;;;;;;;;;;5045939;28;20040;-61
2023/08/06 01:35:37;;;;;;;3.88;2.47;;;;;;;;;;5046991;28;20053;-62
2023/08/06 01:38:05;;;;;;;5.57;2.20;;;;;;;;;;5045330;28;20150;-61
2023/08/06 01:40:34;;;;;;;4.72;2.17;;;;;;;;;;5047107;28;20048;-62
2023/08/06 01:43:03;;;;;;;3.78;2.28;;;;;;;;;;5048336;28;20490;-62
2023/08/06 01:45:31;;;;;;;5.55;2.85;;;;;;;;;;5040305;28;20103;-63
2023/08/06 01:47:59;;;;;;;4.47;2.50;;;;;;;;;;5046974;28;20107;-62
2023/08/06 01:50:28;;;;;;;4.75;2.78;;;;;;;;;;5045372;28;20072;-63
2023/08/06 01:52:57;;;;;;;5.13;2.75;;;;;;;;;;5045777;28;20464;-62
2023/08/06 01:55:26;;;;;;;4.30;2.60;;;;;;;;;;5027891;28;20049;-61
2023/08/06 01:57:54;;;;;;;6.35;2.40;;;;;;;;;;5026234;28;20112;-61
2023/08/06 02:00:22;;;;;;;3.60;2.28;;;;;;;;;;5023155;28;20131;-62
2023/08/06 02:02:51;;;;;;;5.10;2.80;;;;;;;;;;5027436;28;20037;-61
2023/08/06 02:05:20;;;;;;;4.25;2.35;;;;;;;;;;5027489;28;20053;-61
2023/08/06 02:07:49;;;;;;;3.60;2.50;;;;;;;;;;5019485;28;20465;-63
2023/08/06 02:10:18;;;;;;;4.40;2.47;;;;;;;;;;5025094;28;20042;-63
2023/08/06 02:12:47;;;;;;;4.10;2.47;;;;;;;;;;5027430;28;20041;-62
2023/08/06 02:15:15;;;;;;;6.85;2.40;;;;;;;;;;5024956;28;20747;-62
2023/08/06 02:17:44;;;;;;;3.53;2.33;;;;;;;;;;5029960;28;20147;-62
2023/08/06 02:20:12;;;;;;;3.45;2.20;;;;;;;;;;5026283;28;20132;-63
2023/08/06 02:22:40;;;;;;;6.47;2.80;;;;;;;;;;5023181;28;20453;-63
2023/08/06 02:25:09;;;;;;;4.90;2.42;;;;;;;;;;5022940;28;20111;-63
2023/08/06 02:27:40;;;;;;;3.17;2.20;;;;;;;;;;5027404;28;20528;-61
2023/08/06 02:30:08;;;;;;;3.08;1.95;;;;;;;;;;5023159;28;20057;-64
2023/08/06 02:32:37;;;;;;;5.43;2.28;;;;;;;;;;5021372;28;20079;-63
2023/08/06 02:35:05;;;;;;;3.50;2.15;;;;;;;;;;5037922;28;20724;-63
2023/08/06 02:37:35;;;;;;;2.72;2.13;;;;;;;;;;5047440;28;20084;-62
2023/08/06 02:40:03;;;;;;;2.95;1.95;;;;;;;;;;5046396;28;20050;-62
2023/08/06 02:42:31;;;;;;;3.35;2.10;;;;;;;;;;5042985;28;20485;-62
2023/08/06 02:45:01;;;;;;;2.95;2.05;;;;;;;;;;5045464;28;20106;-62
2023/08/06 02:47:31;;;;;;;2.70;1.67;;;;;;;;;;5044523;28;20049;-64
2023/08/06 02:50:00;;;;;;;3.00;1.83;;;;;;;;;;5044082;28;20041;-63
2023/08/06 02:52:28;;;;;;;2.75;2.10;;;;;;;;;;5041649;28;20095;-62
2023/08/06 02:54:59;;;;;;;5.90;1.98;;;;;;;;;;5033050;28;20050;-60
2023/08/06 02:57:28;;;;;;;2.40;1.98;;;;;;;;;;5027519;28;20045;-62
2023/08/06 02:59:56;;;;;;;3.35;1.77;;;;;;;;;;5026060;28;20486;-62
2023/08/06 03:02:26;;;;;;;2.67;2.00;;;;;;;;;;5033268;28;20053;-62
2023/08/06 03:04:54;;;;;;;4.70;2.08;;;;;;;;;;5025028;28;20042;-62
2023/08/06 03:07:23;;;;;;;2.55;1.75;;;;;;;;;;5026469;28;20132;-63
2023/08/06 03:09:51;;;;;;;3.65;2.08;;;;;;;;;;5030593;28;20461;-62
2023/08/06 03:12:20;;;;;;;5.93;1.90;;;;;;;;;;5030928;28;20068;-62
2023/08/06 03:14:48;;;;;;;2.53;1.77;;;;;;;;;;5028191;28;20049;-62
2023/08/06 03:17:16;;;;;;;2.30;1.80;;;;;;;;;;5031948;28;20092;-63
2023/08/06 03:19:46;;;;;;;6.93;1.83;;;;;;;;;;5031779;28;20050;-61
2023/08/06 03:22:14;;;;;;;3.83;1.90;;;;;;;;;;5031266;28;20094;-62
2023/08/06 03:24:43;;;;;;;2.95;1.70;;;;;;;;;;5022850;28;20049;-62
2023/08/06 03:27:13;;;;;;;2.88;1.58;;;;;;;;;;5028353;28;20061;-63
2023/08/06 03:29:42;;;;;;;3.05;1.98;;;;;;;;;;5031244;28;20080;-62
2023/08/06 03:32:10;;;;;;;3.33;1.77;;;;;;;;;;5028834;28;20053;-61
2023/08/06 03:34:38;;;;;;;4.40;1.90;;;;;;;;;;5030097;28;20041;-62
2023/08/06 03:37:08;;;;;;;3.00;1.63;;;;;;;;;;5032712;28;20107;-62
2023/08/06 03:39:36;;;;;;;3.05;1.92;;;;;;;;;;5027267;28;20045;-63
2023/08/06 03:42:05;;;;;;;2.58;1.60;;;;;;;;;;5031480;28;21311;-62
2023/08/06 03:44:33;;;;;;;2.75;1.83;;;;;;;;;;5030663;28;20045;-61
2023/08/06 03:47:02;;;;;;;2.70;1.40;;;;;;;;;;5028164;28;20054;-62
2023/08/06 03:49:30;;;;;;;3.03;1.60;;;;;;;;;;5030825;28;20045;-61
2023/08/06 03:51:58;;;;;;;2.70;1.48;;;;;;;;;;5029210;28;20049;-62
2023/08/06 03:54:29;;;;;;;2.15;1.63;;;;;;;;;;5028901;28;20557;-62
2023/08/06 03:56:57;;;;;;;2.22;1.30;;;;;;;;;;5024997;28;20053;-62
2023/08/06 03:59:25;;;;;;;2.33;1.55;;;;;;;;;;5028691;28;20053;-61
2023/08/06 04:01:54;;;;;;;3.20;1.55;;;;;;;;;;5029083;28;20107;-61
2023/08/06 04:04:22;;;;;;;2.25;1.52;;;;;;;;;;5031335;28;20136;-61
2023/08/06 04:06:51;;;;;;;3.85;1.63;;;;;;;;;;5026323;28;20046;-63
2023/08/06 04:09:19;;;;;;;2.00;1.45;;;;;;;;;;5028884;28;20049;-63
2023/08/06 04:11:49;;;;;;;3.45;1.70;;;;;;;;;;5030490;28;20096;-61
2023/08/06 04:14:18;;;;;;;2.38;1.60;;;;;;;;;;5031398;28;20065;-61
2023/08/06 04:16:46;;;;;;;2.40;1.50;;;;;;;;;;5023358;28;20517;-61
2023/08/06 04:19:15;;;;;;;1.40;1.23;;;;;;;;;;5027938;28;20060;-61
2023/08/06 04:21:43;;;;;;;4.05;1.75;;;;;;;;;;5025792;28;20146;-61
2023/08/06 04:24:11;;;;;;;1.98;1.10;;;;;;;;;;5026467;28;20099;-61
2023/08/06 04:26:40;;;;;;;4.30;1.60;;;;;;;;;;5027224;28;20053;-61
2023/08/06 04:29:09;;;;;;;6.30;1.65;;;;;;;;;;5028670;28;20118;-62
2023/08/06 04:31:38;;;;;;;4.35;1.58;;;;;;;;;;5028720;28;20506;-61
2023/08/06 04:34:07;;;;;;;2.78;1.48;;;;;;;;;;5028827;28;20387;-62
2023/08/06 04:36:36;;;;;;;6.90;1.75;;;;;;;;;;5030479;28;20466;-61
2023/08/06 04:39:04;;;;;;;2.70;1.58;;;;;;;;;;5027916;28;20114;-61
2023/08/06 04:41:33;;;;;;;2.67;1.77;;;;;;;;;;5028734;28;20041;-62
2023/08/06 04:44:01;;;;;;;1.60;1.10;;;;;;;;;;5030035;28;20485;-61
2023/08/06 04:46:31;;;;;;;2.30;1.58;;;;;;;;;;5048605;28;20487;-62
2023/08/06 04:48:59;;;;;;;2.33;1.48;;;;;;;;;;5050152;28;20052;-61
2023/08/06 04:51:27;;;;;;;2.90;1.55;;;;;;;;;;5048388;28;20060;-61
2023/08/06 04:53:56;;;;;;;3.13;1.60;;;;;;;;;;5046845;28;23299;-60
2023/08/06 04:56:24;;;;;;;1.92;1.45;;;;;;;;;;5047874;28;20083;-61
2023/08/06 04:58:55;;;;;;;2.67;1.27;;;;;;;;;;5046632;28;20436;-61
2023/08/06 05:01:23;;;;;;;4.43;1.60;;;;;;;;;;5046500;28;20474;-62
2023/08/06 05:03:54;;;;;;;2.67;1.60;;;;;;;;;;5048442;28;20048;-61
2023/08/06 05:06:23;;;;;;;2.47;1.67;;;;;;;;;;5048544;28;20048;-62
2023/08/06 05:08:51;;;;;;;1.73;1.25;;;;;;;;;;5047503;28;20076;-63
2023/08/06 05:11:19;;;;;;;2.00;1.35;;;;;;;;;;5044549;28;20040;-62
2023/08/06 05:13:48;;;;;;;3.92;1.70;;;;;;;;;;5046088;28;20135;-61
2023/08/06 05:16:16;;;;;;;5.25;1.52;;;;;;;;;;5024343;28;20080;-63
2023/08/06 05:18:44;;;;;;;1.20;0.90;;;;;;;;;;5031430;28;20125;-62
2023/08/06 05:21:16;;;;;;;8.10;2.08;;;;;;;;;;5025685;28;20127;-61
2023/08/06 05:23:44;;;;;;;3.03;1.80;;;;;;;;;;5029912;28;20057;-60
2023/08/06 05:26:14;;;;;;;2.33;1.77;;;;;;;;;;5028320;28;20049;-61
2023/08/06 05:28:42;;;;;;;3.15;1.50;;;;;;;;;;5026705;28;20100;-63
2023/08/06 05:31:11;;;;;;;2.58;1.50;;;;;;;;;;5019835;28;20045;-65
2023/08/06 05:33:39;;;;;;;4.43;1.50;;;;;;;;;;5023302;28;20151;-62
2023/08/06 05:36:07;;;;;;;2.75;1.45;;;;;;;;;;5047999;28;20041;-62
2023/08/06 05:38:37;;;;;;;2.35;1.20;;;;;;;;;;5049677;28;20497;-61
2023/08/06 05:41:06;;;;;;;2.65;1.40;;;;;;;;;;5046762;28;20091;-62
2023/08/06 05:43:34;;;;;;;3.83;1.52;;;;;;;;;;5047394;28;20053;-62
2023/08/06 05:46:02;;;;;;;4.57;1.50;;;;;;;;;;5032021;28;20375;-62
2023/08/06 05:48:32;;;;;;;2.20;1.45;;;;;;;;;;5036928;28;20049;-61
2023/08/06 05:51:01;;;;;;;5.78;1.60;;;;;;;;;;5029638;28;20080;-61
2023/08/06 05:53:29;;;;;;;2.15;1.30;;;;;;;;;;5028776;28;20041;-62
2023/08/06 05:55:59;;;;;;;2.88;1.40;;;;;;;;;;5026594;28;20092;-62
2023/08/06 05:58:29;;;;;;;3.35;1.20;;;;;;;;;;5025895;28;20045;-63
2023/08/06 06:00:57;;;;;;;3.92;1.40;;;;;;;;;;5024224;28;20049;-63
2023/08/06 06:03:25;;;;;;;1.92;1.40;;;;;;;;;;5026852;28;20175;-61
2023/08/06 06:05:54;;;;;;;1.83;1.35;;;;;;;;;;5027903;28;20076;-62
2023/08/06 06:08:22;;;;;;;2.53;1.48;;;;;;;;;;5025600;28;20049;-63
2023/08/06 06:10:51;;;;;;;3.30;1.30;;;;;;;;;;5022044;28;20077;-63
2023/08/06 06:13:20;;;;;;;2.50;1.20;;;;;;;;;;5026526;28;20091;-65
2023/08/06 06:15:49;;;;;;;3.05;1.63;;;;;;;;;;5027245;28;20049;-62
2023/08/06 06:18:17;;;;;;;3.25;1.35;;;;;;;;;;5028422;28;20053;-63
2023/08/06 06:20:46;;;;;;;2.30;1.60;;;;;;;;;;5022665;28;20457;-62
2023/08/06 06:23:14;;;;;;;2.30;1.27;;;;;;;;;;5027534;28;20104;-62
2023/08/06 06:25:44;;;;;;;4.88;1.45;;;;;;;;;;5022578;28;20129;-62
2023/08/06 06:28:12;;;;;;;2.25;1.50;;;;;;;;;;5028432;28;20072;-62
2023/08/06 06:30:42;;;;;;;3.92;1.75;;;;;;;;;;5028064;28;20057;-61
2023/08/06 06:33:10;;;;;;;2.25;1.42;;;;;;;;;;5027443;28;20096;-62
2023/08/06 06:35:39;;;;;;;3.30;1.17;;;;;;;;;;5016921;28;20053;-63
2023/08/06 06:38:07;;;;;;;2.80;1.38;;;;;;;;;;5028271;28;20046;-63
2023/08/06 06:40:36;;;;;;;4.35;1.38;;;;;;;;;;5023842;28;20049;-65
2023/08/06 06:43:04;;;;;;;1.58;1.10;;;;;;;;;;5030602;28;20050;-62
2023/08/06 06:45:32;;;;;;;1.35;1.00;;;;;;;;;;5030312;28;20666;-62
2023/08/06 06:48:02;;;;;;;2.60;1.20;;;;;;;;;;5025780;28;20055;-63
2023/08/06 06:50:31;;;;;;;3.28;0.90;;;;;;;;;;5029788;28;20045;-63
2023/08/06 06:52:59;;;;;;;3.35;1.40;;;;;;;;;;5025970;28;20049;-61
2023/08/06 06:55:27;;;;;;;2.72;1.20;;;;;;;;;;5038554;28;20510;-63
2023/08/06 06:57:56;;;;;;;3.83;1.48;;;;;;;;;;5047393;28;20061;-65
2023/08/06 07:00:24;;;;;;;2.47;1.10;;;;;;;;;;5038676;28;20509;-63
2023/08/06 07:02:53;;;;;;;2.90;1.10;;;;;;;;;;5047899;28;20059;-62
2023/08/06 07:05:22;;;;;;;3.28;1.30;;;;;;;;;;5031669;28;20057;-62
2023/08/06 07:07:51;;;;;;;2.20;1.38;;;;;;;;;;5023581;28;20151;-62
2023/08/06 07:10:19;;;;;;;5.43;1.20;;;;;;;;;;5027161;28;20054;-62
2023/08/06 07:12:48;;;;;;;1.20;0.70;;;;;;;;;;5027050;28;20049;-62
2023/08/06 07:15:17;;;;;;;1.60;0.85;;;;;;;;;;5031020;28;20061;-62
2023/08/06 07:17:45;;;;;;;2.97;1.05;;;;;;;;;;5023086;28;20495;-61
2023/08/06 07:20:14;;;;;;;6.85;1.08;;;;;;;;;;5030399;28;20053;-62
2023/08/06 07:22:44;;;;;;;1.73;1.00;;;;;;;;;;5021968;28;20049;-62
2023/08/06 07:25:12;;;;;;;3.20;0.63;;;;;;;;;;5029167;28;20557;-62
2023/08/06 07:27:41;;;;;;;2.20;0.70;;;;;;;;;;5041919;28;20049;-63
2023/08/06 07:30:11;;;;;;;2.38;0.70;;;;;;;;;;5046069;28;20509;-66
2023/08/06 07:32:39;;;;;;;2.88;0.70;;;;;;;;;;5047044;28;20053;-61
2023/08/06 07:35:12;;;;;;;0.98;0.60;;;;;;;;;;5046621;28;20052;-59
2023/08/06 07:37:40;;;;;;;1.23;0.57;;;;;;;;;;5044943;28;20452;-63
2023/08/06 07:40:11;;;;;;;1.63;0.60;;;;;;;;;;5045764;28;20080;-62
2023/08/06 07:42:39;;;;;;;0.80;0.40;;;;;;;;;;5049697;28;20134;-62
2023/08/06 07:45:09;;;;;;;1.90;0.77;;;;;;;;;;5040487;28;20037;-58
2023/08/06 07:47:37;;;;;;;1.90;0.75;;;;;;;;;;5043466;28;20080;-62
2023/08/06 07:50:06;;;;;;;2.10;0.50;;;;;;;;;;5048504;28;20048;-62
2023/08/06 07:52:34;;;;;;;2.78;0.70;;;;;;;;;;5040956;28;20044;-62
2023/08/06 07:55:04;;;;;;;0.68;0.43;;;;;;;;;;5048455;28;20094;-62
2023/08/06 07:57:34;;;;;;;1.65;0.77;;;;;;;;;;5043594;28;20048;-61
2023/08/06 08:00:03;;;;;;;2.83;0.65;;;;;;;;;;5045372;28;20048;-61
2023/08/06 08:02:32;;;;;;;0.70;0.50;;;;;;;;;;5047971;28;20295;-61
2023/08/06 08:05:00;;;;;;;1.63;0.68;;;;;;;;;;5047242;28;20045;-61
2023/08/06 08:07:30;;;;;;;0.60;0.40;;;;;;;;;;5044608;28;20490;-60
2023/08/06 08:09:58;;;;;;;1.73;0.70;;;;;;;;;;5048295;28;20055;-62
2023/08/06 08:12:27;;;;;;;2.33;0.65;;;;;;;;;;5047582;28;20567;-60
2023/08/06 08:14:56;;;;;;;1.20;0.50;;;;;;;;;;5047016;28;20128;-62
2023/08/06 08:17:25;;;;;;;2.60;0.70;;;;;;;;;;5040763;28;20479;-63
2023/08/06 08:19:53;;;;;;;2.72;0.80;;;;;;;;;;5047886;28;20044;-60
2023/08/06 08:22:22;;;;;;;1.75;0.73;;;;;;;;;;5039779;28;20110;-62
2023/08/06 08:24:50;;;;;;;2.25;0.60;;;;;;;;;;5036998;28;20123;-61
2023/08/06 08:27:18;;;;;;;1.23;0.73;;;;;;;;;;5024078;28;20072;-63
2023/08/06 08:29:47;;;;;;;2.20;0.70;;;;;;;;;;5024931;28;20484;-63
2023/08/06 08:32:17;;;;;;;0.80;0.57;;;;;;;;;;5025712;28;20132;-60
2023/08/06 08:34:45;;;;;;;3.75;0.70;;;;;;;;;;5031557;28;20148;-63
2023/08/06 08:37:14;;;;;;;3.47;0.60;;;;;;;;;;5037845;28;20049;-62
2023/08/06 08:39:43;;;;;;;0.82;0.50;;;;;;;;;;5044113;28;20053;-61
2023/08/06 08:42:12;;;;;;;0.50;0.43;;;;;;;;;;5047653;28;20068;-62
2023/08/06 08:44:41;;;;;;;1.88;0.60;;;;;;;;;;5045136;28;20044;-62
2023/08/06 08:47:10;;;;;;;1.40;0.45;;;;;;;;;;5043520;28;20099;-62
2023/08/06 08:49:40;;;;;;;0.50;0.40;;;;;;;;;;5041272;28;21207;-62
2023/08/06 08:52:10;;;;;;;0.40;0.30;;;;;;;;;;5040956;28;20057;-62
2023/08/06 08:54:39;;;;;;;4.38;0.93;;;;;;;;;;5042063;28;20052;-61
2023/08/06 08:57:07;;;;;;;0.47;0.30;;;;;;;;;;5043260;28;20041;-61
2023/08/06 08:59:36;;;;;;;0.75;0.30;;;;;;;;;;5042101;28;20080;-64
2023/08/06 09:02:05;;;;;;;2.20;0.30;;;;;;;;;;5043654;28;20126;-61
2023/08/06 09:04:35;;;;;;;0.80;0.52;;;;;;;;;;5043490;28;20063;-60
2023/08/06 09:07:06;;;;;;;1.95;0.30;;;;;;;;;;5046383;28;20056;-60
2023/08/06 09:09:36;;;;;;;0.25;0.20;;;;;;;;;;5043084;28;20618;-62
2023/08/06 09:12:09;;;;;;;0.90;0.32;;;;;;;;;;5040000;28;20517;-61
2023/08/06 09:14:37;;;;;;;0.57;0.30;;;;;;;;;;5030312;28;20081;-62
2023/08/06 09:17:06;;;;;;;1.65;0.43;;;;;;;;;;5028090;28;20048;-63
2023/08/06 09:19:35;;;;;;;1.65;0.30;;;;;;;;;;5031016;28;20049;-64
2023/08/06 09:22:10;;;;;;;0.20;0.20;;;;;;;;;;5027218;28;20084;-62
2023/08/06 09:24:40;;;;;;;0.63;0.30;;;;;;;;;;5023830;28;20509;-61
2023/08/06 09:27:13;;;;;;;0.20;0.20;;;;;;;;;;5024976;28;20135;-63
2023/08/06 09:29:42;;;;;;;0.30;0.22;;;;;;;;;;5021253;28;20049;-62
2023/08/06 09:32:11;;;;;;;2.28;0.30;;;;;;;;;;5022238;28;20061;-62
2023/08/06 09:34:40;;;;;;;0.20;0.20;;;;;;;;;;5021637;28;20103;-62
2023/08/06 09:37:11;;;;;;;1.67;0.20;;;;;;;;;;5022002;28;20058;-64
2023/08/06 09:39:41;;;;;;;0.20;0.20;;;;;;;;;;5020754;28;20119;-63
2023/08/06 09:42:09;;;;;;;0.43;0.17;;;;;;;;;;5026041;28;20080;-62
2023/08/06 09:44:39;;;;;;;0.13;0.08;;;;;;;;;;5019250;28;20053;-62
2023/08/06 09:47:07;;;;;;;0.40;0.20;;;;;;;;;;5023345;28;20552;-62
2023/08/06 09:49:43;;;;;;;0.17;0.10;;;;;;;;;;5024654;28;20064;-62
2023/08/06 09:52:15;;;;;;;0.98;0.38;;;;;;;;;;5026718;28;20154;-62
2023/08/06 09:54:45;;;;;;;0.32;0.30;;;;;;;;;;5024921;28;20045;-64
2023/08/06 09:57:14;;;;;;;0.68;0.13;;;;;;;;;;5024672;28;20061;-60
2023/08/06 09:59:45;;;;;;;0.77;0.20;;;;;;;;;;5024723;28;20057;-62
2023/08/06 10:02:15;;;;;;;1.55;0.40;;;;;;;;;;5021916;28;20377;-62
2023/08/06 10:04:47;;;;;;;0.50;0.20;;;;;;;;;;5030024;28;20118;-61
2023/08/06 10:07:24;;;;;;;0.20;0.15;;;;;;;;;;5038193;28;20049;-63
2023/08/06 10:09:53;;;;;;;0.10;0.10;;;;;;;;;;5037110;28;20060;-63
2023/08/06 10:12:21;;;;;;;0.38;0.20;;;;;;;;;;5042666;28;20056;-64
2023/08/06 10:14:51;;;;;;;0.75;0.20;;;;;;;;;;5031193;28;20081;-63
2023/08/06 10:17:20;;;;;;;0.45;0.25;;;;;;;;;;5031313;28;20045;-62
2023/08/06 10:19:49;;;;;;;0.13;0.10;;;;;;;;;;5028636;28;20088;-64
2023/08/06 10:22:18;;;;;;;0.90;0.20;;;;;;;;;;5027098;28;20552;-63
2023/08/06 10:24:54;;;;;;;0.75;0.30;;;;;;;;;;5031824;28;20108;-62
2023/08/06 10:27:24;;;;;;;0.57;0.20;;;;;;;;;;5039848;28;20051;-62
2023/08/06 10:29:52;;;;;;;0.30;0.30;;;;;;;;;;5042591;28;20080;-61
2023/08/06 10:32:21;;;;;;;0.82;0.30;;;;;;;;;;5036967;28;20045;-63
2023/08/06 10:34:57;;;;;;;0.10;0.10;;;;;;;;;;5032836;28;20053;-63
2023/08/06 10:37:26;;;;;;;0.10;0.10;;;;;;;;;;5022916;28;20060;-63
2023/08/06 10:39:56;;;;;;;0.10;0.10;;;;;;;;;;5020627;28;20126;-63
2023/08/06 10:42:28;;;;;;;0.85;0.10;;;;;;;;;;5018945;28;20122;-62
2023/08/06 10:45:15;;;;;;;0.15;0.10;;;;;;;;;;5020809;28;20096;-66
2023/08/06 10:47:44;;;;;;;0.00;0.00;;;;;;;;;;5013944;28;20115;-62
2023/08/06 10:50:13;;;;;;;0.43;0.20;;;;;;;;;;5024728;28;20050;-62
2023/08/06 10:52:41;;;;;;;0.08;0.03;;;;;;;;;;5021899;28;20057;-62
2023/08/06 10:55:11;;;;;;;0.82;0.20;;;;;;;;;;5024604;28;20049;-63
2023/08/06 10:57:40;;;;;;;0.13;0.10;;;;;;;;;;5023401;28;20117;-61
2023/08/06 11:00:12;;;;;;;0.43;0.20;;;;;;;;;;5015968;28;20172;-62
2023/08/06 11:02:44;;;;;;;2.35;0.10;;;;;;;;;;5022086;28;20512;-62
2023/08/06 11:05:13;;;;;;;0.55;0.00;;;;;;;;;;5021381;28;20053;-63
2023/08/06 11:07:42;;;;;;;1.23;0.20;;;;;;;;;;5021120;28;20107;-62
2023/08/06 11:10:12;;;;;;;0.32;0.10;;;;;;;;;;5025591;28;20427;-62
2023/08/06 11:12:41;;;;;;;0.63;0.20;;;;;;;;;;5019095;28;20327;-61
2023/08/06 11:15:11;;;;;;;0.10;0.10;;;;;;;;;;5023012;28;20103;-61
2023/08/06 11:17:41;;;;;;;1.27;0.13;;;;;;;;;;5023954;28;20056;-63
2023/08/06 11:20:10;;;;;;;0.32;0.05;;;;;;;;;;5022775;28;20056;-63
2023/08/06 11:22:39;;;;;;;0.82;0.20;;;;;;;;;;5024373;28;20053;-63
2023/08/06 11:25:08;;;;;;;0.25;0.10;;;;;;;;;;5023390;28;20050;-62
2023/08/06 11:27:38;;;;;;;0.00;0.00;;;;;;;;;;5020729;28;20049;-64
2023/08/06 11:30:07;;;;;;;0.17;0.17;;;;;;;;;;5025495;28;20056;-63
2023/08/06 11:32:46;;;;;;;0.35;0.10;;;;;;;;;;5028242;28;20057;-62
2023/08/06 11:35:15;;;;;;;0.20;0.10;;;;;;;;;;5024528;28;20140;-61
2023/08/06 11:37:45;;;;;;;0.08;0.00;;;;;;;;;;5026457;28;20053;-62
2023/08/06 11:40:16;;;;;;;0.30;0.10;;;;;;;;;;5026888;28;20057;-63
2023/08/06 11:42:48;;;;;;;0.10;0.10;;;;;;;;;;5025796;28;20049;-60
2023/08/06 11:45:16;;;;;;;0.10;0.10;;;;;;;;;;5026206;28;20719;-62
2023/08/06 11:47:52;;;;;;;0.00;0.00;;;;;;;;;;5022182;28;20438;-61
2023/08/06 11:50:23;;;;;;;0.00;0.00;;;;;;;;;;5027490;28;20498;-62
2023/08/06 11:52:55;;;;;;;2.08;0.28;;;;;;;;;;5026770;28;20037;-62
2023/08/06 11:55:25;;;;;;;2.83;0.20;;;;;;;;;;5026997;28;20049;-60
2023/08/06 11:57:54;;;;;;;0.00;0.00;;;;;;;;;;5024967;28;20042;-61
2023/08/06 12:00:24;;;;;;;0.10;0.10;;;;;;;;;;5031531;28;20045;-62
2023/08/06 12:02:54;;;;;;;0.05;0.05;;;;;;;;;;5030137;28;20049;-61
2023/08/06 12:05:24;;;;;;;0.17;0.10;;;;;;;;;;5026693;28;20042;-63
2023/08/06 12:07:53;;;;;;;0.35;0.10;;;;;;;;;;5030901;28;20103;-62
2023/08/06 12:10:22;;;;;;;0.40;0.20;;;;;;;;;;5024712;28;20053;-61
2023/08/06 12:12:50;;;;;;;0.00;0.00;;;;;;;;;;5028394;28;20069;-61
2023/08/06 12:15:20;;;;;;;0.10;0.10;;;;;;;;;;5025962;28;20057;-62
2023/08/06 12:17:49;;;;;;;0.60;0.25;;;;;;;;;;5024581;28;20069;-61
2023/08/06 12:20:17;;;;;;;0.10;0.10;;;;;;;;;;5024598;28;20056;-62
2023/08/06 12:22:46;;;;;;;0.15;0.15;;;;;;;;;;5022099;28;20046;-63
2023/08/06 12:25:15;;;;;;;0.55;0.20;;;;;;;;;;5022260;28;20046;-61
2023/08/06 12:27:44;;;;;;;0.32;0.10;;;;;;;;;;5025664;28;20053;-63
2023/08/06 12:30:13;;;;;;;0.10;0.10;;;;;;;;;;5024018;28;20046;-61
2023/08/06 12:32:43;;;;;;;0.00;0.00;;;;;;;;;;5022468;28;20049;-63
2023/08/06 12:35:11;;;;;;;0.10;0.10;;;;;;;;;;5015603;28;20421;-62
2023/08/06 12:37:40;;;;;;;2.85;0.32;;;;;;;;;;5024348;28;20037;-62
2023/08/06 12:40:08;;;;;;;0.30;0.10;;;;;;;;;;5020399;28;20111;-62
2023/08/06 12:42:58;;;;;;;0.10;0.10;;;;;;;;;;5019407;28;20380;-62
2023/08/06 12:45:27;;;;;;;0.20;0.10;;;;;;;;;;5037460;28;20049;-64
2023/08/06 12:47:56;;;;;;;0.10;0.10;;;;;;;;;;5048820;28;20389;-62
2023/08/06 12:50:25;;;;;;;0.20;0.20;;;;;;;;;;5048616;28;20049;-61
2023/08/06 12:52:54;;;;;;;0.10;0.10;;;;;;;;;;5043911;28;20049;-61
2023/08/06 12:55:22;;;;;;;3.00;0.22;;;;;;;;;;5046725;28;20084;-62
2023/08/06 12:57:50;;;;;;;0.20;0.20;;;;;;;;;;5048811;28;20136;-63
2023/08/06 13:00:26;;;;;;;0.28;0.17;;;;;;;;;;5046972;28;20055;-64
2023/08/06 13:02:54;;;;;;;0.10;0.10;;;;;;;;;;5050453;28;20072;-62
2023/08/06 13:05:24;;;;;;;0.52;0.20;;;;;;;;;;5048250;28;20450;-62
2023/08/06 13:07:53;;;;;;;0.20;0.10;;;;;;;;;;5034737;28;20566;-63
2023/08/06 13:10:21;;;;;;;0.85;0.10;;;;;;;;;;5046376;28;20124;-64
2023/08/06 13:12:49;;;;;;;0.10;0.10;;;;;;;;;;5046043;28;20041;-64
2023/08/06 13:15:20;;;;;;;0.00;0.00;;;;;;;;;;5044921;28;20145;-61
2023/08/06 13:17:49;;;;;;;0.00;0.00;;;;;;;;;;5045215;28;20045;-63
2023/08/06 13:20:19;;;;;;;0.10;0.10;;;;;;;;;;5043600;28;20123;-63
2023/08/06 13:22:52;;;;;;;0.00;0.00;;;;;;;;;;5050389;28;20375;-62
2023/08/06 13:25:24;;;;;;;0.20;0.10;;;;;;;;;;5022676;28;20512;-63
2023/08/06 13:27:52;;;;;;;0.47;0.20;;;;;;;;;;5035055;28;20041;-63
2023/08/06 13:30:22;;;;;;;0.15;0.10;;;;;;;;;;5023436;28;20193;-67
2023/08/06 13:32:51;;;;;;;0.10;0.10;;;;;;;;;;5024733;28;20049;-63
2023/08/06 13:35:20;;;;;;;0.45;0.10;;;;;;;;;;5040550;28;20045;-64
2023/08/06 13:37:49;;;;;;;0.47;0.10;;;;;;;;;;5049602;28;20053;-64
2023/08/06 13:40:18;;;;;;;0.98;0.17;;;;;;;;;;5046898;28;20049;-62
2023/08/06 13:42:46;;;;;;;1.13;0.20;;;;;;;;;;5047962;28;20040;-62
2023/08/06 13:45:14;;;;;;;0.10;0.10;;;;;;;;;;5030124;28;20502;-63
2023/08/06 13:47:43;;;;;;;0.10;0.10;;;;;;;;;;5035878;28;20102;-61
2023/08/06 13:50:12;;;;;;;0.17;0.10;;;;;;;;;;5031354;28;20422;-61
2023/08/06 13:52:40;;;;;;;0.32;0.05;;;;;;;;;;5025154;28;20045;-62
2023/08/06 13:55:10;;;;;;;0.20;0.10;;;;;;;;;;5033332;28;20122;-61
2023/08/06 13:57:38;;;;;;;0.10;0.10;;;;;;;;;;5040065;28;20045;-62
2023/08/06 14:00:07;;;;;;;0.20;0.20;;;;;;;;;;5049742;28;20056;-63
2023/08/06 14:02:36;;;;;;;0.10;0.10;;;;;;;;;;5046065;28;20087;-62
2023/08/06 14:05:05;;;;;;;0.70;0.20;;;;;;;;;;5048718;28;20052;-63
2023/08/06 14:07:33;;;;;;;0.77;0.10;;;;;;;;;;5048157;28;20099;-62
2023/08/06 14:10:01;;;;;;;0.20;0.20;;;;;;;;;;5043047;28;20168;-64
2023/08/06 14:12:31;;;;;;;2.38;0.20;;;;;;;;;;5045355;28;20057;-63
2023/08/06 14:15:00;;;;;;;0.25;0.10;;;;;;;;;;5029894;28;20049;-63
2023/08/06 14:17:28;;;;;;;0.15;0.10;;;;;;;;;;5025414;28;20479;-62
2023/08/06 14:19:57;;;;;;;0.22;0.00;;;;;;;;;;5028086;28;20049;-63
2023/08/06 14:22:25;;;;;;;0.10;0.10;;;;;;;;;;5030044;28;20057;-60
2023/08/06 14:24:54;;;;;;;0.17;0.10;;;;;;;;;;5023260;28;20056;-59
2023/08/06 14:27:23;;;;;;;0.60;0.20;;;;;;;;;;5026807;28;20045;-60
2023/08/06 14:29:53;;;;;;;1.30;0.20;;;;;;;;;;5022689;28;20511;-60
2023/08/06 14:32:22;;;;;;;0.45;0.20;;;;;;;;;;5020296;28;20088;-60
2023/08/06 14:34:50;;;;;;;0.15;0.10;;;;;;;;;;5034738;28;20485;-59
2023/08/06 14:37:19;;;;;;;0.10;0.10;;;;;;;;;;5048620;28;20041;-61
2023/08/06 14:39:47;;;;;;;0.80;0.10;;;;;;;;;;5047436;28;20049;-61
2023/08/06 14:42:16;;;;;;;0.45;0.20;;;;;;;;;;5047662;28;20505;-62
2023/08/06 14:44:44;;;;;;;0.30;0.20;;;;;;;;;;5032263;28;20077;-61
2023/08/06 14:47:14;;;;;;;0.20;0.20;;;;;;;;;;5027563;28;20587;-60
2023/08/06 14:49:43;;;;;;;0.32;0.22;;;;;;;;;;5026240;28;20054;-60
2023/08/06 14:52:11;;;;;;;1.00;0.28;;;;;;;;;;5026420;28;20049;-62
2023/08/06 14:54:40;;;;;;;1.60;0.30;;;;;;;;;;5023149;28;20607;-61